sensor_id;sensor_type;location;lat;lon;timestamp;temperature;humidity
70421;SHT31;57848;51.938;15.520;2022-09-17T00:01:06;10.05;89.05
70421;SHT31;57848;51.938;15.520;2022-09-17T00:03:33;10.08;89.82
70421;SHT31;57848;51.938;15.520;2022-09-17T00:06:06;9.95;89.55
70421;SHT31;57848;51.938;15.520;2022-09-17T00:08:33;10.05;89.44
70421;SHT31;57848;51.938;15.520;2022-09-17T00:11:09;9.98;89.39
70421;SHT31;57848;51.938;15.520;2022-09-17T00:13:35;9.97;89.00
70421;SHT31;57848;51.938;15.520;2022-09-17T00:16:01;10.01;89.79
70421;SHT31;57848;51.938;15.520;2022-09-17T00:18:26;10.01;88.69
70421;SHT31;57848;51.938;15.520;2022-09-17T00:20:52;10.05;89.06
70421;SHT31;57848;51.938;15.520;2022-09-17T00:23:17;10.04;88.49
70421;SHT31;57848;51.938;15.520;2022-09-17T00:25:44;10.04;88.61
70421;SHT31;57848;51.938;15.520;2022-09-17T00:28:11;10.04;87.84
70421;SHT31;57848;51.938;15.520;2022-09-17T00:30:42;10.10;87.99
70421;SHT31;57848;51.938;15.520;2022-09-17T00:33:10;10.14;88.48
70421;SHT31;57848;51.938;15.520;2022-09-17T00:35:36;10.17;87.71
70421;SHT31;57848;51.938;15.520;2022-09-17T00:38:01;10.15;87.95
70421;SHT31;57848;51.938;15.520;2022-09-17T00:40:27;10.15;87.80
70421;SHT31;57848;51.938;15.520;2022-09-17T00:42:52;10.17;87.96
70421;SHT31;57848;51.938;15.520;2022-09-17T00:45:18;10.20;87.30
70421;SHT31;57848;51.938;15.520;2022-09-17T00:47:47;10.14;87.50
70421;SHT31;57848;51.938;15.520;2022-09-17T00:50:35;10.18;89.27
70421;SHT31;57848;51.938;15.520;2022-09-17T00:53:09;10.13;89.13
70421;SHT31;57848;51.938;15.520;2022-09-17T00:56:13;10.17;88.74
70421;SHT31;57848;51.938;15.520;2022-09-17T00:58:43;10.18;88.75
70421;SHT31;57848;51.938;15.520;2022-09-17T01:01:08;10.18;88.51
70421;SHT31;57848;51.938;15.520;2022-09-17T01:03:33;10.13;88.20
70421;SHT31;57848;51.938;15.520;2022-09-17T01:06:09;10.20;88.71
70421;SHT31;57848;51.938;15.520;2022-09-17T01:11:33;10.14;89.25
70421;SHT31;57848;51.938;15.520;2022-09-17T01:14:21;10.11;89.37
70421;SHT31;57848;51.938;15.520;2022-09-17T01:22:42;10.04;89.60
70421;SHT31;57848;51.938;15.520;2022-09-17T01:25:45;10.13;89.27
70421;SHT31;57848;51.938;15.520;2022-09-17T01:28:23;10.15;88.91
70421;SHT31;57848;51.938;15.520;2022-09-17T01:31:12;10.18;88.77
70421;SHT31;57848;51.938;15.520;2022-09-17T01:33:52;10.14;87.98
70421;SHT31;57848;51.938;15.520;2022-09-17T01:39:48;10.20;88.40
70421;SHT31;57848;51.938;15.520;2022-09-17T01:42:07;10.27;88.08
70421;SHT31;57848;51.938;15.520;2022-09-17T01:47:21;10.25;88.10
70421;SHT31;57848;51.938;15.520;2022-09-17T01:49:50;10.34;87.80
70421;SHT31;57848;51.938;15.520;2022-09-17T01:52:18;10.31;88.16
70421;SHT31;57848;51.938;15.520;2022-09-17T01:54:50;10.34;88.59
70421;SHT31;57848;51.938;15.520;2022-09-17T01:58:04;10.31;88.82
70421;SHT31;57848;51.938;15.520;2022-09-17T02:00:22;10.35;89.14
70421;SHT31;57848;51.938;15.520;2022-09-17T02:03:07;10.30;89.11
70421;SHT31;57848;51.938;15.520;2022-09-17T02:05:47;10.32;88.69
70421;SHT31;57848;51.938;15.520;2022-09-17T02:08:21;10.31;89.08
70421;SHT31;57848;51.938;15.520;2022-09-17T02:10:51;10.30;89.32
70421;SHT31;57848;51.938;15.520;2022-09-17T02:13:23;10.34;89.63
70421;SHT31;57848;51.938;15.520;2022-09-17T02:15:56;10.31;89.91
70421;SHT31;57848;51.938;15.520;2022-09-17T02:18:35;10.28;89.87
70421;SHT31;57848;51.938;15.520;2022-09-17T02:21:16;10.35;89.46
70421;SHT31;57848;51.938;15.520;2022-09-17T02:23:55;10.31;89.79
70421;SHT31;57848;51.938;15.520;2022-09-17T02:26:22;10.32;90.25
70421;SHT31;57848;51.938;15.520;2022-09-17T02:28:53;10.31;90.25
70421;SHT31;57848;51.938;15.520;2022-09-17T02:31:20;10.30;90.14
70421;SHT31;57848;51.938;15.520;2022-09-17T02:33:48;10.35;90.22
70421;SHT31;57848;51.938;15.520;2022-09-17T02:36:15;10.30;90.28
70421;SHT31;57848;51.938;15.520;2022-09-17T02:38:43;10.38;90.11
70421;SHT31;57848;51.938;15.520;2022-09-17T02:41:13;10.34;90.29
70421;SHT31;57848;51.938;15.520;2022-09-17T02:49:39;10.40;90.60
70421;SHT31;57848;51.938;15.520;2022-09-17T02:52:37;10.44;90.56
70421;SHT31;57848;51.938;15.520;2022-09-17T02:55:17;10.44;90.47
70421;SHT31;57848;51.938;15.520;2022-09-17T02:57:51;10.40;90.81
70421;SHT31;57848;51.938;15.520;2022-09-17T03:00:20;10.42;90.89
70421;SHT31;57848;51.938;15.520;2022-09-17T03:02:49;10.38;90.98
70421;SHT31;57848;51.938;15.520;2022-09-17T03:05:17;10.44;91.07
70421;SHT31;57848;51.938;15.520;2022-09-17T03:07:44;10.49;90.80
70421;SHT31;57848;51.938;15.520;2022-09-17T03:10:10;10.49;90.88
70421;SHT31;57848;51.938;15.520;2022-09-17T03:12:35;10.48;91.22
70421;SHT31;57848;51.938;15.520;2022-09-17T03:15:01;10.42;91.07
70421;SHT31;57848;51.938;15.520;2022-09-17T03:17:26;10.48;90.95
70421;SHT31;57848;51.938;15.520;2022-09-17T03:19:52;10.44;91.16
70421;SHT31;57848;51.938;15.520;2022-09-17T03:22:17;10.40;90.98
70421;SHT31;57848;51.938;15.520;2022-09-17T03:24:43;10.44;91.25
70421;SHT31;57848;51.938;15.520;2022-09-17T03:27:08;10.45;91.20
70421;SHT31;57848;51.938;15.520;2022-09-17T03:29:33;10.42;91.24
70421;SHT31;57848;51.938;15.520;2022-09-17T03:31:59;10.52;91.14
70421;SHT31;57848;51.938;15.520;2022-09-17T03:34:25;10.52;91.10
70421;SHT31;57848;51.938;15.520;2022-09-17T03:36:50;10.49;90.85
70421;SHT31;57848;51.938;15.520;2022-09-17T03:39:15;10.52;91.12
70421;SHT31;57848;51.938;15.520;2022-09-17T03:41:41;10.54;91.01
70421;SHT31;57848;51.938;15.520;2022-09-17T03:44:06;10.59;91.18
70421;SHT31;57848;51.938;15.520;2022-09-17T03:46:31;10.52;91.12
70421;SHT31;57848;51.938;15.520;2022-09-17T03:48:56;10.51;91.23
70421;SHT31;57848;51.938;15.520;2022-09-17T03:51:22;10.61;91.00
70421;SHT31;57848;51.938;15.520;2022-09-17T03:53:47;10.58;90.78
70421;SHT31;57848;51.938;15.520;2022-09-17T03:56:12;10.58;90.91
70421;SHT31;57848;51.938;15.520;2022-09-17T03:58:38;10.62;91.01
70421;SHT31;57848;51.938;15.520;2022-09-17T04:01:04;10.66;90.83
70421;SHT31;57848;51.938;15.520;2022-09-17T04:03:30;10.73;90.79
70421;SHT31;57848;51.938;15.520;2022-09-17T04:05:55;10.66;90.81
70421;SHT31;57848;51.938;15.520;2022-09-17T04:08:21;10.68;90.59
70421;SHT31;57848;51.938;15.520;2022-09-17T04:10:47;10.66;90.55
70421;SHT31;57848;51.938;15.520;2022-09-17T04:13:14;10.73;90.70
70421;SHT31;57848;51.938;15.520;2022-09-17T04:15:39;10.63;90.69
70421;SHT31;57848;51.938;15.520;2022-09-17T04:18:05;10.68;90.67
70421;SHT31;57848;51.938;15.520;2022-09-17T04:20:30;10.73;90.75
70421;SHT31;57848;51.938;15.520;2022-09-17T04:22:55;10.72;90.75
70421;SHT31;57848;51.938;15.520;2022-09-17T04:25:21;10.73;90.62
70421;SHT31;57848;51.938;15.520;2022-09-17T04:27:47;10.73;90.65
70421;SHT31;57848;51.938;15.520;2022-09-17T04:30:13;10.77;90.61
70421;SHT31;57848;51.938;15.520;2022-09-17T04:32:39;10.75;90.99
70421;SHT31;57848;51.938;15.520;2022-09-17T04:35:04;10.71;90.74
70421;SHT31;57848;51.938;15.520;2022-09-17T04:37:30;10.83;90.43
70421;SHT31;57848;51.938;15.520;2022-09-17T04:39:55;10.80;90.36
70421;SHT31;57848;51.938;15.520;2022-09-17T04:42:21;10.88;90.47
70421;SHT31;57848;51.938;15.520;2022-09-17T04:44:46;10.88;90.57
70421;SHT31;57848;51.938;15.520;2022-09-17T04:47:12;10.79;90.54
70421;SHT31;57848;51.938;15.520;2022-09-17T04:49:37;10.86;90.67
70421;SHT31;57848;51.938;15.520;2022-09-17T04:52:02;10.89;90.70
70421;SHT31;57848;51.938;15.520;2022-09-17T04:54:28;10.86;90.68
70421;SHT31;57848;51.938;15.520;2022-09-17T04:56:53;10.92;90.72
70421;SHT31;57848;51.938;15.520;2022-09-17T04:59:18;10.88;90.52
70421;SHT31;57848;51.938;15.520;2022-09-17T05:01:43;10.88;90.58
70421;SHT31;57848;51.938;15.520;2022-09-17T05:04:09;10.89;90.51
70421;SHT31;57848;51.938;15.520;2022-09-17T05:06:35;10.89;90.55
70421;SHT31;57848;51.938;15.520;2022-09-17T05:09:00;10.93;90.48
70421;SHT31;57848;51.938;15.520;2022-09-17T05:11:26;10.92;90.53
70421;SHT31;57848;51.938;15.520;2022-09-17T05:13:52;10.97;90.44
70421;SHT31;57848;51.938;15.520;2022-09-17T05:16:17;10.95;90.41
70421;SHT31;57848;51.938;15.520;2022-09-17T05:18:42;11.00;90.57
70421;SHT31;57848;51.938;15.520;2022-09-17T05:21:08;11.04;90.19
70421;SHT31;57848;51.938;15.520;2022-09-17T05:23:33;11.02;90.28
70421;SHT31;57848;51.938;15.520;2022-09-17T05:25:59;11.00;90.05
70421;SHT31;57848;51.938;15.520;2022-09-17T05:28:25;11.04;89.86
70421;SHT31;57848;51.938;15.520;2022-09-17T05:30:51;11.07;89.97
70421;SHT31;57848;51.938;15.520;2022-09-17T05:33:16;11.06;90.33
70421;SHT31;57848;51.938;15.520;2022-09-17T05:35:42;11.04;90.32
70421;SHT31;57848;51.938;15.520;2022-09-17T05:38:09;11.09;90.41
70421;SHT31;57848;51.938;15.520;2022-09-17T05:40:34;11.14;89.77
70421;SHT31;57848;51.938;15.520;2022-09-17T05:43:03;11.17;89.74
70421;SHT31;57848;51.938;15.520;2022-09-17T05:45:32;11.22;89.60
70421;SHT31;57848;51.938;15.520;2022-09-17T05:47:59;11.16;89.74
70421;SHT31;57848;51.938;15.520;2022-09-17T05:50:26;11.20;89.38
70421;SHT31;57848;51.938;15.520;2022-09-17T05:52:52;11.27;89.45
70421;SHT31;57848;51.938;15.520;2022-09-17T05:55:18;11.28;89.37
70421;SHT31;57848;51.938;15.520;2022-09-17T05:57:44;11.31;89.23
70421;SHT31;57848;51.938;15.520;2022-09-17T06:00:10;11.31;89.06
70421;SHT31;57848;51.938;15.520;2022-09-17T06:02:37;11.31;89.12
70421;SHT31;57848;51.938;15.520;2022-09-17T06:05:03;11.34;89.42
70421;SHT31;57848;51.938;15.520;2022-09-17T06:07:29;11.44;89.02
70421;SHT31;57848;51.938;15.520;2022-09-17T06:09:55;11.45;88.79
70421;SHT31;57848;51.938;15.520;2022-09-17T06:12:20;11.45;88.65
70421;SHT31;57848;51.938;15.520;2022-09-17T06:14:46;11.47;88.89
70421;SHT31;57848;51.938;15.520;2022-09-17T06:17:11;11.47;88.84
70421;SHT31;57848;51.938;15.520;2022-09-17T06:19:37;11.50;88.93
70421;SHT31;57848;51.938;15.520;2022-09-17T06:22:02;11.51;89.08
70421;SHT31;57848;51.938;15.520;2022-09-17T06:24:29;11.64;88.83
70421;SHT31;57848;51.938;15.520;2022-09-17T06:26:54;11.72;88.61
70421;SHT31;57848;51.938;15.520;2022-09-17T06:29:20;11.71;88.59
70421;SHT31;57848;51.938;15.520;2022-09-17T06:31:47;11.84;88.40
70421;SHT31;57848;51.938;15.520;2022-09-17T06:34:12;11.82;88.10
70421;SHT31;57848;51.938;15.520;2022-09-17T06:36:38;11.85;87.77
70421;SHT31;57848;51.938;15.520;2022-09-17T06:39:03;11.84;88.39
70421;SHT31;57848;51.938;15.520;2022-09-17T06:41:28;11.86;88.33
70421;SHT31;57848;51.938;15.520;2022-09-17T06:43:54;11.91;87.73
70421;SHT31;57848;51.938;15.520;2022-09-17T06:46:19;11.86;87.48
70421;SHT31;57848;51.938;15.520;2022-09-17T06:48:45;11.96;87.89
70421;SHT31;57848;51.938;15.520;2022-09-17T06:51:10;11.95;87.82
70421;SHT31;57848;51.938;15.520;2022-09-17T06:53:36;12.03;87.78
70421;SHT31;57848;51.938;15.520;2022-09-17T06:56:03;11.99;87.89
70421;SHT31;57848;51.938;15.520;2022-09-17T06:58:30;11.98;87.45
70421;SHT31;57848;51.938;15.520;2022-09-17T07:00:59;11.99;87.62
70421;SHT31;57848;51.938;15.520;2022-09-17T07:03:28;12.05;87.75
70421;SHT31;57848;51.938;15.520;2022-09-17T07:05:54;11.98;87.52
70421;SHT31;57848;51.938;15.520;2022-09-17T07:08:19;12.02;87.95
70421;SHT31;57848;51.938;15.520;2022-09-17T07:10:47;12.01;87.77
70421;SHT31;57848;51.938;15.520;2022-09-17T07:13:12;12.01;88.01
70421;SHT31;57848;51.938;15.520;2022-09-17T07:15:37;11.99;88.03
70421;SHT31;57848;51.938;15.520;2022-09-17T07:18:07;11.98;88.16
70421;SHT31;57848;51.938;15.520;2022-09-17T07:20:33;11.95;88.34
70421;SHT31;57848;51.938;15.520;2022-09-17T07:22:58;11.98;88.52
70421;SHT31;57848;51.938;15.520;2022-09-17T07:25:24;12.02;88.47
70421;SHT31;57848;51.938;15.520;2022-09-17T07:27:50;12.03;88.36
70421;SHT31;57848;51.938;15.520;2022-09-17T07:30:16;12.09;88.04
70421;SHT31;57848;51.938;15.520;2022-09-17T07:32:42;12.11;87.86
70421;SHT31;57848;51.938;15.520;2022-09-17T07:35:07;12.08;88.02
70421;SHT31;57848;51.938;15.520;2022-09-17T07:37:32;12.09;87.58
70421;SHT31;57848;51.938;15.520;2022-09-17T07:39:58;12.19;87.76
70421;SHT31;57848;51.938;15.520;2022-09-17T07:42:23;12.23;87.42
70421;SHT31;57848;51.938;15.520;2022-09-17T07:44:48;12.37;86.56
70421;SHT31;57848;51.938;15.520;2022-09-17T07:47:14;12.36;86.05
70421;SHT31;57848;51.938;15.520;2022-09-17T07:49:39;12.42;86.21
70421;SHT31;57848;51.938;15.520;2022-09-17T07:52:04;12.61;86.30
70421;SHT31;57848;51.938;15.520;2022-09-17T07:54:33;12.61;85.39
70421;SHT31;57848;51.938;15.520;2022-09-17T07:56:59;12.65;85.91
70421;SHT31;57848;51.938;15.520;2022-09-17T07:59:24;12.64;85.57
70421;SHT31;57848;51.938;15.520;2022-09-17T08:01:50;12.59;85.59
70421;SHT31;57848;51.938;15.520;2022-09-17T08:04:15;12.60;85.91
70421;SHT31;57848;51.938;15.520;2022-09-17T08:06:41;12.71;85.56
70421;SHT31;57848;51.938;15.520;2022-09-17T08:09:06;12.74;85.25
70421;SHT31;57848;51.938;15.520;2022-09-17T08:11:34;12.73;85.02
70421;SHT31;57848;51.938;15.520;2022-09-17T08:13:59;12.81;85.28
70421;SHT31;57848;51.938;15.520;2022-09-17T08:16:24;12.79;85.01
70421;SHT31;57848;51.938;15.520;2022-09-17T08:18:54;12.73;85.22
70421;SHT31;57848;51.938;15.520;2022-09-17T08:21:20;12.73;85.11
70421;SHT31;57848;51.938;15.520;2022-09-17T08:23:46;12.73;85.21
70421;SHT31;57848;51.938;15.520;2022-09-17T08:26:21;12.81;84.89
70421;SHT31;57848;51.938;15.520;2022-09-17T08:28:49;12.90;84.35
70421;SHT31;57848;51.938;15.520;2022-09-17T08:31:16;12.88;84.58
70421;SHT31;57848;51.938;15.520;2022-09-17T08:33:43;12.90;84.35
70421;SHT31;57848;51.938;15.520;2022-09-17T08:36:11;12.84;84.39
70421;SHT31;57848;51.938;15.520;2022-09-17T08:38:37;12.77;85.06
70421;SHT31;57848;51.938;15.520;2022-09-17T08:41:16;12.80;84.85
70421;SHT31;57848;51.938;15.520;2022-09-17T08:44:23;12.87;84.72
70421;SHT31;57848;51.938;15.520;2022-09-17T08:46:51;12.84;84.68
70421;SHT31;57848;51.938;15.520;2022-09-17T08:50:13;12.84;84.22
70421;SHT31;57848;51.938;15.520;2022-09-17T08:55:27;13.05;84.33
70421;SHT31;57848;51.938;15.520;2022-09-17T09:01:15;13.46;83.47
70421;SHT31;57848;51.938;15.520;2022-09-17T09:03:55;13.69;82.49
70421;SHT31;57848;51.938;15.520;2022-09-17T09:06:27;13.73;83.01
70421;SHT31;57848;51.938;15.520;2022-09-17T09:09:01;13.59;81.64
70421;SHT31;57848;51.938;15.520;2022-09-17T09:11:29;13.52;82.19
70421;SHT31;57848;51.938;15.520;2022-09-17T09:14:21;13.55;82.28
70421;SHT31;57848;51.938;15.520;2022-09-17T09:16:49;13.67;81.32
70421;SHT31;57848;51.938;15.520;2022-09-17T09:19:33;13.74;81.29
70421;SHT31;57848;51.938;15.520;2022-09-17T09:22:09;13.83;81.86
70421;SHT31;57848;51.938;15.520;2022-09-17T09:24:44;13.97;81.26
70421;SHT31;57848;51.938;15.520;2022-09-17T09:27:17;14.20;81.30
70421;SHT31;57848;51.938;15.520;2022-09-17T09:32:50;15.13;77.47
70421;SHT31;57848;51.938;15.520;2022-09-17T09:35:23;15.44;74.91
70421;SHT31;57848;51.938;15.520;2022-09-17T09:37:59;15.43;74.30
70421;SHT31;57848;51.938;15.520;2022-09-17T09:40:32;15.36;74.28
70421;SHT31;57848;51.938;15.520;2022-09-17T09:43:02;15.65;74.32
70421;SHT31;57848;51.938;15.520;2022-09-17T09:45:56;16.38;71.65
70421;SHT31;57848;51.938;15.520;2022-09-17T09:53:35;19.43;60.58
70421;SHT31;57848;51.938;15.520;2022-09-17T09:58:54;20.62;58.00
70421;SHT31;57848;51.938;15.520;2022-09-17T10:01:20;19.85;58.62
70421;SHT31;57848;51.938;15.520;2022-09-17T10:03:48;18.86;61.69
70421;SHT31;57848;51.938;15.520;2022-09-17T10:06:14;17.18;71.33
70421;SHT31;57848;51.938;15.520;2022-09-17T10:11:25;15.22;79.55
70421;SHT31;57848;51.938;15.520;2022-09-17T10:13:51;15.04;81.20
70421;SHT31;57848;51.938;15.520;2022-09-17T10:18:44;14.46;82.48
70421;SHT31;57848;51.938;15.520;2022-09-17T10:21:21;14.25;83.64
70421;SHT31;57848;51.938;15.520;2022-09-17T10:23:47;14.11;82.84
70421;SHT31;57848;51.938;15.520;2022-09-17T10:26:23;14.14;84.44
70421;SHT31;57848;51.938;15.520;2022-09-17T10:28:54;14.24;84.33
70421;SHT31;57848;51.938;15.520;2022-09-17T10:31:20;14.35;84.78
70421;SHT31;57848;51.938;15.520;2022-09-17T10:34:00;14.72;82.72
70421;SHT31;57848;51.938;15.520;2022-09-17T10:36:43;14.85;82.30
70421;SHT31;57848;51.938;15.520;2022-09-17T10:41:57;14.93;82.01
70421;SHT31;57848;51.938;15.520;2022-09-17T10:44:25;14.98;81.43
70421;SHT31;57848;51.938;15.520;2022-09-17T10:46:51;15.11;80.97
70421;SHT31;57848;51.938;15.520;2022-09-17T10:49:33;15.22;81.86
70421;SHT31;57848;51.938;15.520;2022-09-17T10:52:05;15.36;80.94
70421;SHT31;57848;51.938;15.520;2022-09-17T10:54:48;15.33;80.85
70421;SHT31;57848;51.938;15.520;2022-09-17T11:00:17;15.23;82.31
70421;SHT31;57848;51.938;15.520;2022-09-17T11:05:40;15.39;80.23
70421;SHT31;57848;51.938;15.520;2022-09-17T11:08:16;15.22;82.13
70421;SHT31;57848;51.938;15.520;2022-09-17T11:10:56;15.04;82.22
70421;SHT31;57848;51.938;15.520;2022-09-17T11:13:38;14.89;83.22
70421;SHT31;57848;51.938;15.520;2022-09-17T11:16:21;14.59;82.94
70421;SHT31;57848;51.938;15.520;2022-09-17T11:19:16;14.28;84.71
70421;SHT31;57848;51.938;15.520;2022-09-17T11:24:47;13.35;84.83
70421;SHT31;57848;51.938;15.520;2022-09-17T11:27:36;13.05;85.44
70421;SHT31;57848;51.938;15.520;2022-09-17T11:30:15;13.18;87.51
70421;SHT31;57848;51.938;15.520;2022-09-17T11:35:28;16.92;79.57
70421;SHT31;57848;51.938;15.520;2022-09-17T11:38:14;17.17;78.04
